Time;durP1;ratioP1;P1;durP2;ratioP2;P2;SDS_P1;SDS_P2;PMS_P1;PMS_P2;Temp;Humidity;BMP_temperature;BMP_pressure;BME280_temperature;BME280_humidity;BME280_pressure;Samples;Min_cycle;Max_cycle;Signal;HPM_P1;HPM_P2
2021/05/19 00:01:52;;;;;;;6.97;6.47;;;9.40;99.90;;;;;;5052974;28;20261;-77
2021/05/19 00:04:19;;;;;;;7.37;6.87;;;9.40;99.90;;;;;;5045997;28;20195;-77
2021/05/19 00:06:45;;;;;;;7.00;6.53;;;9.40;99.90;;;;;;5028313;28;20866;-77
2021/05/19 00:09:14;;;;;;;6.97;6.53;;;9.40;99.90;;;;;;5052035;28;20217;-77
2021/05/19 00:11:41;;;;;;;7.37;6.77;;;9.40;99.90;;;;;;5027949;28;20219;-77
2021/05/19 00:14:09;;;;;;;7.47;6.97;;;9.40;99.90;;;;;;5034472;28;20231;-77
2021/05/19 00:16:36;;;;;;;7.50;6.90;;;9.40;99.90;;;;;;5045540;28;20211;-77
2021/05/19 00:19:04;;;;;;;7.03;6.63;;;9.50;99.90;;;;;;5035258;28;20222;-77
2021/05/19 00:21:30;;;;;;;7.03;6.43;;;9.40;99.90;;;;;;5027050;28;20234;-77
2021/05/19 00:23:57;;;;;;;7.30;6.80;;;9.40;99.90;;;;;;5045892;28;20211;-77
2021/05/19 00:26:25;;;;;;;7.40;6.90;;;9.40;99.90;;;;;;5032726;28;20203;-77
2021/05/19 00:28:53;;;;;;;7.00;6.60;;;9.40;99.90;;;;;;5028081;28;20203;-76
2021/05/19 00:31:22;;;;;;;7.50;7.00;;;9.40;99.90;;;;;;5024492;28;20775;-77
2021/05/19 00:33:48;;;;;;;7.17;6.57;;;9.50;99.90;;;;;;5022113;28;20231;-77
2021/05/19 00:36:15;;;;;;;7.33;6.90;;;9.50;99.90;;;;;;5036979;28;20328;-77
2021/05/19 00:38:42;;;;;;;7.27;6.80;;;9.50;99.90;;;;;;5027890;28;20195;-77
2021/05/19 00:41:09;;;;;;;6.53;6.23;;;9.50;99.90;;;;;;5027243;28;20214;-77
2021/05/19 00:43:36;;;;;;;7.13;6.67;;;9.50;99.90;;;;;;5036604;28;20199;-76
2021/05/19 00:46:03;;;;;;;6.53;6.13;;;9.50;99.90;;;;;;5036531;28;20201;-77
2021/05/19 00:48:29;;;;;;;6.97;6.50;;;9.50;99.90;;;;;;5036994;28;20253;-77
2021/05/19 00:50:56;;;;;;;7.00;6.50;;;9.50;99.90;;;;;;5024825;28;20227;-77
2021/05/19 00:53:23;;;;;;;6.77;6.40;;;9.50;99.90;;;;;;5016265;28;20658;-77
2021/05/19 00:55:50;;;;;;;7.40;6.90;;;9.40;99.90;;;;;;5027094;28;20258;-77
2021/05/19 00:58:17;;;;;;;6.87;6.47;;;9.50;99.90;;;;;;5036782;28;20190;-77
2021/05/19 01:00:45;;;;;;;6.60;6.23;;;9.50;99.90;;;;;;5020457;28;20223;-77
2021/05/19 01:03:23;;;;;;;6.97;6.57;;;9.40;99.90;;;;;;5022162;28;20202;-77
2021/05/19 01:05:52;;;;;;;6.50;6.20;;;9.50;99.90;;;;;;5027108;28;20202;-77
2021/05/19 01:11:10;;;;;;;7.00;6.60;;;9.50;99.90;;;;;;5021716;28;20305;-77
2021/05/19 01:13:39;;;;;;;7.40;6.90;;;9.50;99.90;;;;;;5021067;28;20199;-77
2021/05/19 01:16:06;;;;;;;7.10;6.70;;;9.50;99.90;;;;;;5025304;28;20214;-77
2021/05/19 01:18:32;;;;;;;7.00;6.60;;;9.50;99.90;;;;;;5026538;28;20226;-77
2021/05/19 01:21:00;;;;;;;7.00;6.60;;;9.50;99.90;;;;;;5016809;28;20699;-77
2021/05/19 01:23:30;;;;;;;8.80;6.70;;;9.50;99.90;;;;;;5025392;28;20245;-77
2021/05/19 01:25:56;;;;;;;7.00;6.60;;;9.50;99.90;;;;;;5023629;28;20213;-77
2021/05/19 01:28:23;;;;;;;7.17;6.77;;;9.50;99.90;;;;;;5022464;28;20203;-77
2021/05/19 01:30:50;;;;;;;7.43;6.93;;;9.50;99.90;;;;;;5018912;28;20330;-77
2021/05/19 01:33:17;;;;;;;7.20;6.80;;;9.50;99.90;;;;;;5035426;28;20198;-77
2021/05/19 01:35:43;;;;;;;7.20;6.80;;;9.50;99.90;;;;;;5035035;28;20208;-77
2021/05/19 01:38:13;;;;;;;7.53;6.83;;;9.50;99.90;;;;;;5034904;28;20214;-77
2021/05/19 01:40:40;;;;;;;7.40;7.00;;;9.50;99.90;;;;;;5022099;28;20273;-77
2021/05/19 01:43:07;;;;;;;7.67;6.90;;;9.50;99.90;;;;;;5026380;28;20199;-77
2021/05/19 01:45:53;;;;;;;7.07;6.67;;;9.40;99.90;;;;;;5030173;28;20283;-77
2021/05/19 01:48:22;;;;;;;7.50;7.10;;;9.40;99.90;;;;;;5033935;28;20598;-77
2021/05/19 01:50:49;;;;;;;7.40;7.00;;;9.40;99.90;;;;;;5025063;28;20596;-76
2021/05/19 01:53:16;;;;;;;7.50;7.00;;;9.40;99.90;;;;;;5016837;28;20464;-77
2021/05/19 01:55:43;;;;;;;7.20;6.80;;;9.40;99.90;;;;;;5034732;28;20211;-77
2021/05/19 01:58:13;;;;;;;7.60;7.10;;;9.40;99.90;;;;;;5027028;28;20196;-77
2021/05/19 02:00:40;;;;;;;7.37;6.97;;;9.40;99.90;;;;;;5022053;28;20425;-77
2021/05/19 02:03:07;;;;;;;7.20;6.80;;;9.40;99.90;;;;;;5019031;28;20203;-77
2021/05/19 02:05:51;;;;;;;7.20;6.80;;;9.40;99.90;;;;;;5024736;28;20199;-77
2021/05/19 02:08:17;;;;;;;7.80;7.40;;;9.40;99.90;;;;;;5024830;28;20195;-77
2021/05/19 02:10:45;;;;;;;7.70;7.20;;;9.40;99.90;;;;;;5020717;28;20233;-77
2021/05/19 02:13:13;;;;;;;7.60;7.20;;;9.40;99.90;;;;;;5027346;28;20198;-77
2021/05/19 02:15:40;;;;;;;7.60;7.20;;;9.40;99.90;;;;;;5022603;28;20219;-77
2021/05/19 02:18:08;;;;;;;8.00;7.40;;;9.40;99.90;;;;;;5019766;28;20202;-77
2021/05/19 02:20:35;;;;;;;7.30;6.90;;;9.40;99.90;;;;;;5024446;28;20215;-77
2021/05/19 02:23:02;;;;;;;7.87;7.23;;;9.40;99.90;;;;;;5024349;28;20594;-77
2021/05/19 02:25:29;;;;;;;8.20;7.57;;;9.40;99.90;;;;;;5024988;28;20188;-77
2021/05/19 02:27:57;;;;;;;8.47;7.97;;;9.40;99.90;;;;;;5022338;28;20629;-77
2021/05/19 02:30:31;;;;;;;8.50;7.90;;;9.40;99.90;;;;;;5025155;28;20264;-77
2021/05/19 02:32:57;;;;;;;8.17;7.67;;;9.40;99.90;;;;;;5034010;28;20195;-77
2021/05/19 02:35:24;;;;;;;8.00;7.60;;;9.50;99.90;;;;;;5035587;28;20221;-78
2021/05/19 02:38:02;;;;;;;7.80;7.30;;;9.50;99.90;;;;;;5021640;28;20242;-77
2021/05/19 02:40:30;;;;;;;7.37;6.97;;;9.40;99.90;;;;;;5024740;28;20226;-77
2021/05/19 02:42:58;;;;;;;7.40;7.00;;;9.40;99.90;;;;;;5025659;28;20593;-77
2021/05/19 02:45:29;;;;;;;8.20;7.70;;;9.50;99.90;;;;;;5028706;28;20189;-77
2021/05/19 02:47:55;;;;;;;7.50;7.10;;;9.40;99.90;;;;;;5037205;28;20232;-76
2021/05/19 02:50:22;;;;;;;7.90;7.27;;;9.50;99.90;;;;;;5033249;28;20761;-77
2021/05/19 02:52:48;;;;;;;8.20;7.70;;;9.50;99.90;;;;;;5013912;28;20207;-77
2021/05/19 02:55:15;;;;;;;8.40;7.90;;;9.50;99.90;;;;;;5011179;28;20226;-77
2021/05/19 02:57:41;;;;;;;8.00;7.60;;;9.50;99.90;;;;;;5016620;28;20199;-77
2021/05/19 03:00:10;;;;;;;8.20;7.70;;;9.50;99.90;;;;;;4998354;28;20227;-77
2021/05/19 03:02:37;;;;;;;8.43;7.93;;;9.50;99.90;;;;;;5031115;28;20203;-77
2021/05/19 03:05:04;;;;;;;7.97;7.47;;;9.50;99.90;;;;;;5031070;28;20194;-77
2021/05/19 03:07:30;;;;;;;7.90;7.43;;;9.50;99.90;;;;;;5015565;28;20203;-77
2021/05/19 03:09:57;;;;;;;8.63;8.03;;;9.40;99.90;;;;;;5031191;28;20230;-77
2021/05/19 03:12:23;;;;;;;8.97;8.40;;;9.40;99.90;;;;;;5022244;28;20207;-76
2021/05/19 03:14:50;;;;;;;7.73;7.33;;;9.50;99.90;;;;;;5018613;28;20203;-76
2021/05/19 03:17:17;;;;;;;8.13;7.63;;;9.40;99.90;;;;;;5006453;28;20233;-80
2021/05/19 03:19:43;;;;;;;8.40;7.80;;;9.50;99.90;;;;;;5022030;28;20203;-76
2021/05/19 03:22:10;;;;;;;8.27;7.77;;;9.40;99.90;;;;;;5030385;28;20199;-76
2021/05/19 03:24:36;;;;;;;8.90;8.20;;;9.40;99.90;;;;;;5030608;28;20554;-77
2021/05/19 03:27:03;;;;;;;8.43;7.90;;;9.40;99.90;;;;;;5021838;28;20797;-76
2021/05/19 03:29:29;;;;;;;8.50;8.00;;;9.40;99.90;;;;;;5026579;28;20693;-77
2021/05/19 03:31:56;;;;;;;8.20;7.70;;;9.40;99.90;;;;;;5028803;28;20704;-77
2021/05/19 03:34:23;;;;;;;8.63;8.10;;;9.40;99.90;;;;;;5021228;28;20214;-76
2021/05/19 03:36:49;;;;;;;9.60;9.00;;;9.40;99.90;;;;;;5021907;28;20732;-76
2021/05/19 03:39:16;;;;;;;8.70;8.20;;;9.40;99.90;;;;;;5032000;28;20206;-76
2021/05/19 03:41:42;;;;;;;9.37;8.57;;;9.40;99.90;;;;;;5017376;28;20234;-78
2021/05/19 03:44:09;;;;;;;8.50;8.00;;;9.40;99.90;;;;;;5031774;28;20222;-77
2021/05/19 03:46:36;;;;;;;8.47;7.97;;;9.40;99.90;;;;;;5031586;28;20206;-76
2021/05/19 03:49:04;;;;;;;8.97;8.47;;;9.40;99.90;;;;;;5018549;28;20567;-76
2021/05/19 03:51:31;;;;;;;9.60;9.00;;;9.40;99.90;;;;;;5021637;28;20251;-76
2021/05/19 03:53:57;;;;;;;8.70;8.20;;;9.40;99.90;;;;;;5021939;28;20206;-77
2021/05/19 03:56:24;;;;;;;9.10;8.40;;;9.40;99.90;;;;;;5022877;28;20223;-77
2021/05/19 03:58:50;;;;;;;9.17;8.57;;;9.40;99.90;;;;;;5020438;28;20270;-76
2021/05/19 04:01:17;;;;;;;10.20;9.50;;;9.40;99.90;;;;;;4999785;28;20230;-76
2021/05/19 04:03:44;;;;;;;9.00;8.37;;;9.40;99.90;;;;;;5031457;28;20210;-76
2021/05/19 04:06:10;;;;;;;10.13;9.33;;;9.40;99.90;;;;;;5017978;28;20223;-77
2021/05/19 04:08:40;;;;;;;9.53;8.93;;;9.40;99.90;;;;;;5031353;28;20200;-76
2021/05/19 04:11:07;;;;;;;9.50;8.90;;;9.40;99.90;;;;;;5031018;28;20226;-76
2021/05/19 04:13:33;;;;;;;9.40;8.80;;;9.40;99.90;;;;;;5015920;28;20236;-76
2021/05/19 04:16:00;;;;;;;9.27;8.57;;;9.40;99.90;;;;;;5021229;28;20222;-76
2021/05/19 04:18:26;;;;;;;8.80;8.20;;;9.40;99.90;;;;;;5030025;28;20210;-76
2021/05/19 04:20:53;;;;;;;9.77;9.17;;;9.40;99.90;;;;;;5029550;28;20741;-76
2021/05/19 04:23:21;;;;;;;9.00;8.40;;;9.40;99.90;;;;;;5030797;28;20575;-77
2021/05/19 04:25:49;;;;;;;9.37;8.77;;;9.40;99.90;;;;;;5020609;28;20211;-77
2021/05/19 04:28:15;;;;;;;9.43;8.83;;;9.40;99.90;;;;;;5035009;28;20195;-78
2021/05/19 04:30:41;;;;;;;9.27;8.67;;;9.40;99.90;;;;;;5035238;28;20241;-77
2021/05/19 04:33:08;;;;;;;9.60;9.00;;;9.50;99.90;;;;;;5034598;28;20891;-77
2021/05/19 04:35:35;;;;;;;8.97;8.47;;;9.50;99.90;;;;;;5036545;28;20257;-79
2021/05/19 04:38:02;;;;;;;9.53;8.93;;;9.50;99.90;;;;;;5025117;28;20213;-78
2021/05/19 04:40:28;;;;;;;9.30;8.80;;;9.50;99.90;;;;;;5025822;28;20234;-79
2021/05/19 04:42:56;;;;;;;9.10;8.50;;;9.60;99.90;;;;;;5034527;28;20221;-79
2021/05/19 04:45:23;;;;;;;9.20;8.60;;;9.60;99.90;;;;;;5025557;28;20651;-81
2021/05/19 04:47:49;;;;;;;9.10;8.53;;;9.60;99.90;;;;;;5025635;28;20219;-80
2021/05/19 04:50:16;;;;;;;9.00;8.50;;;9.60;99.90;;;;;;5025135;28;20225;-80
2021/05/19 04:52:42;;;;;;;9.93;9.07;;;9.60;99.90;;;;;;5025243;28;20207;-79
2021/05/19 04:55:10;;;;;;;9.20;8.60;;;9.60;99.90;;;;;;5025327;28;20200;-79
2021/05/19 04:57:37;;;;;;;9.07;8.57;;;9.70;99.90;;;;;;5034646;28;20222;-80
2021/05/19 05:00:07;;;;;;;9.40;8.90;;;9.70;99.90;;;;;;5031426;28;20236;-81
2021/05/19 05:02:33;;;;;;;9.50;8.90;;;9.80;99.90;;;;;;5024944;28;20227;-81
2021/05/19 05:05:00;;;;;;;9.37;8.80;;;9.80;99.90;;;;;;5025221;28;20227;-80
2021/05/19 05:07:26;;;;;;;9.30;8.70;;;9.80;99.90;;;;;;5030075;28;20664;-79
2021/05/19 05:09:55;;;;;;;9.00;8.50;;;9.90;99.90;;;;;;5025059;28;20210;-80
2021/05/19 05:12:22;;;;;;;8.83;8.33;;;9.90;99.90;;;;;;5020717;28;20200;-79
2021/05/19 05:14:48;;;;;;;8.80;8.30;;;10.00;99.90;;;;;;5034819;28;20192;-79
2021/05/19 05:17:15;;;;;;;8.50;8.00;;;10.00;99.90;;;;;;5033436;28;20269;-79
2021/05/19 05:19:42;;;;;;;8.80;8.30;;;10.10;99.90;;;;;;5017762;28;20200;-80
2021/05/19 05:22:08;;;;;;;8.70;8.20;;;10.10;99.90;;;;;;5017849;28;20250;-80
2021/05/19 05:24:35;;;;;;;9.47;8.87;;;10.10;99.90;;;;;;5035750;28;20284;-79
2021/05/19 05:27:01;;;;;;;9.17;8.67;;;10.20;99.90;;;;;;5034562;28;20195;-79
2021/05/19 05:29:27;;;;;;;9.03;8.53;;;10.20;99.90;;;;;;5019376;28;20207;-79
2021/05/19 05:31:54;;;;;;;9.47;8.87;;;10.20;99.90;;;;;;5039724;28;20215;-78
2021/05/19 05:34:21;;;;;;;9.00;8.50;;;10.30;99.90;;;;;;5020817;28;20196;-77
2021/05/19 05:36:47;;;;;;;9.00;8.50;;;10.40;99.90;;;;;;5032133;28;20216;-79
2021/05/19 05:39:14;;;;;;;9.30;8.70;;;10.40;99.90;;;;;;5034397;28;20196;-78
2021/05/19 05:41:40;;;;;;;9.30;8.70;;;10.50;99.90;;;;;;5032665;28;20570;-78
2021/05/19 05:44:07;;;;;;;9.37;8.77;;;10.60;99.90;;;;;;5016847;28;20204;-78
2021/05/19 05:46:34;;;;;;;8.60;8.10;;;10.80;99.90;;;;;;5024098;28;20676;-80
2021/05/19 05:49:00;;;;;;;9.40;8.90;;;10.90;99.90;;;;;;5025602;28;20629;-78
2021/05/19 05:51:28;;;;;;;7.90;7.37;;;11.00;99.90;;;;;;5022770;28;20799;-79
2021/05/19 05:53:55;;;;;;;8.20;7.70;;;11.20;99.90;;;;;;5037838;28;20250;-79
2021/05/19 05:56:22;;;;;;;9.67;9.07;;;11.30;99.90;;;;;;5025571;28;20283;-80
2021/05/19 05:58:48;;;;;;;8.63;8.10;;;11.50;99.90;;;;;;5025855;28;20275;-79
2021/05/19 06:01:15;;;;;;;7.10;6.67;;;11.70;99.90;;;;;;5027540;28;20241;-79
2021/05/19 06:03:42;;;;;;;3.20;3.00;;;11.90;99.90;;;;;;5035756;28;20274;-79
2021/05/19 06:06:09;;;;;;;4.03;3.73;;;12.20;99.90;;;;;;5018107;28;20196;-79
2021/05/19 06:08:37;;;;;;;3.80;3.50;;;12.30;99.90;;;;;;5035643;28;20208;-79
2021/05/19 06:11:07;;;;;;;6.33;5.93;;;12.40;99.90;;;;;;5020097;28;20274;-79
2021/05/19 06:13:34;;;;;;;4.80;4.30;;;12.60;99.90;;;;;;5023687;28;20200;-79
2021/05/19 06:16:01;;;;;;;3.60;3.30;;;12.60;99.90;;;;;;5024584;28;20216;-79
2021/05/19 06:18:28;;;;;;;4.37;4.17;;;12.70;99.90;;;;;;5025411;28;20213;-78
2021/05/19 06:20:54;;;;;;;4.47;4.10;;;13.00;99.90;;;;;;5020338;28;20223;-79
2021/05/19 06:23:21;;;;;;;5.30;4.90;;;13.20;99.90;;;;;;5020485;28;20196;-79
2021/05/19 06:25:48;;;;;;;7.13;6.70;;;13.90;99.90;;;;;;5023790;28;20218;-78
2021/05/19 06:28:14;;;;;;;8.30;7.60;;;14.50;99.90;;;;;;5028615;28;20653;-79
2021/05/19 06:30:41;;;;;;;5.57;5.07;;;15.30;99.90;;;;;;5034075;28;20216;-79
2021/05/19 06:33:07;;;;;;;6.93;6.50;;;15.80;99.90;;;;;;5018890;28;20211;-79
2021/05/19 06:35:33;;;;;;;5.63;5.20;;;16.30;99.90;;;;;;5035338;28;20202;-79
2021/05/19 06:38:00;;;;;;;4.97;4.67;;;16.50;99.90;;;;;;5033670;28;20197;-80
2021/05/19 06:40:26;;;;;;;4.20;3.90;;;16.70;99.90;;;;;;5018808;28;20225;-79
2021/05/19 06:42:53;;;;;;;4.30;3.90;;;16.40;99.90;;;;;;5023681;28;20209;-79
2021/05/19 06:45:20;;;;;;;4.83;4.43;;;16.40;99.90;;;;;;5017140;28;20201;-79
2021/05/19 06:47:46;;;;;;;5.00;4.50;;;16.20;99.90;;;;;;5020374;28;20582;-80
2021/05/19 06:50:13;;;;;;;5.03;4.60;;;16.40;99.90;;;;;;5024312;28;20218;-80
2021/05/19 06:52:39;;;;;;;4.50;4.20;;;16.60;99.90;;;;;;5023408;28;20200;-80
2021/05/19 06:55:07;;;;;;;4.60;4.20;;;16.80;99.90;;;;;;5023773;28;20830;-80
2021/05/19 06:57:35;;;;;;;4.40;4.10;;;17.40;99.90;;;;;;5039718;28;20299;-79
2021/05/19 07:00:04;;;;;;;4.00;3.80;;;17.90;99.90;;;;;;5034277;28;20231;-80
2021/05/19 07:02:30;;;;;;;4.43;4.07;;;18.30;99.90;;;;;;5025106;28;20208;-80
2021/05/19 07:04:57;;;;;;;3.97;3.77;;;18.50;99.90;;;;;;5025518;28;20201;-80
2021/05/19 07:07:23;;;;;;;4.50;4.10;;;18.80;99.90;;;;;;5024952;28;20238;-79
2021/05/19 07:09:49;;;;;;;7.33;6.87;;;18.50;99.90;;;;;;5032535;28;20203;-80
2021/05/19 07:12:16;;;;;;;8.00;7.30;;;18.80;99.90;;;;;;5032880;28;20200;-80
2021/05/19 07:14:47;;;;;;;8.10;7.43;;;18.30;99.90;;;;;;5018637;28;20212;-80
2021/05/19 07:17:14;;;;;;;7.50;7.00;;;17.70;99.90;;;;;;5019411;28;20307;-80
2021/05/19 07:19:41;;;;;;;7.87;7.37;;;17.50;99.90;;;;;;5019338;28;20201;-80
2021/05/19 07:22:07;;;;;;;7.20;6.80;;;17.30;99.90;;;;;;5017319;28;20208;-80
2021/05/19 07:24:34;;;;;;;7.43;6.83;;;17.20;99.90;;;;;;5033559;28;20259;-79
2021/05/19 07:27:00;;;;;;;6.80;6.40;;;17.00;99.90;;;;;;5023362;28;20200;-80
2021/05/19 07:29:27;;;;;;;6.63;6.23;;;16.90;99.90;;;;;;5033851;28;20212;-80
2021/05/19 07:31:53;;;;;;;6.90;6.50;;;16.90;99.90;;;;;;5042501;28;20761;-80
2021/05/19 07:34:21;;;;;;;7.03;6.53;;;17.00;99.90;;;;;;5045374;28;20576;-80
2021/05/19 07:36:47;;;;;;;7.10;6.70;;;17.00;99.90;;;;;;5045253;28;20218;-80
2021/05/19 07:39:14;;;;;;;7.63;7.13;;;17.00;99.90;;;;;;5042711;28;20218;-80
2021/05/19 07:41:40;;;;;;;6.87;6.47;;;16.80;99.90;;;;;;5044612;28;20222;-79
2021/05/19 07:44:07;;;;;;;6.80;6.40;;;16.90;99.90;;;;;;5025730;28;20195;-80
2021/05/19 07:46:34;;;;;;;6.70;6.30;;;16.90;99.90;;;;;;5026911;28;20252;-80
2021/05/19 07:49:01;;;;;;;7.20;6.70;;;16.80;99.90;;;;;;5026262;28;20195;-80
2021/05/19 07:51:28;;;;;;;7.27;6.67;;;16.50;99.90;;;;;;5044680;28;20734;-80
2021/05/19 07:53:55;;;;;;;6.70;6.33;;;16.50;99.90;;;;;;5037400;28;20192;-80
2021/05/19 07:56:28;;;;;;;7.23;6.73;;;17.20;99.90;;;;;;5038322;28;20684;-80
2021/05/19 07:59:00;;;;;;;7.53;6.90;;;17.80;99.90;;;;;;5021609;28;20683;-79
2021/05/19 08:01:42;;;;;;;6.90;6.40;;;18.40;99.90;;;;;;5024838;28;20319;-79
2021/05/19 08:04:10;;;;;;;7.53;6.90;;;19.00;99.90;;;;;;5027148;28;20203;-80
2021/05/19 08:06:38;;;;;;;7.00;6.50;;;19.70;99.90;;;;;;5042395;28;20201;-79
2021/05/19 08:09:05;;;;;;;6.70;6.20;;;20.20;99.90;;;;;;5028869;28;20573;-78
2021/05/19 08:11:33;;;;;;;4.10;3.80;;;19.80;99.90;;;;;;5017996;28;20226;-80
2021/05/19 08:14:00;;;;;;;6.63;6.23;;;19.20;99.90;;;;;;5017701;28;20285;-79
2021/05/19 08:16:26;;;;;;;7.10;6.60;;;18.60;99.90;;;;;;5041726;28;20211;-80
2021/05/19 08:18:52;;;;;;;7.10;6.60;;;18.30;99.90;;;;;;5049422;28;20252;-80
2021/05/19 08:21:19;;;;;;;7.00;6.53;;;18.40;99.90;;;;;;5027757;28;20221;-80
2021/05/19 08:23:46;;;;;;;6.93;6.53;;;18.20;99.90;;;;;;5024508;28;20201;-80
2021/05/19 08:26:13;;;;;;;7.13;6.53;;;17.70;99.90;;;;;;5049336;28;20557;-80
2021/05/19 08:28:39;;;;;;;6.87;6.40;;;17.50;99.90;;;;;;5030979;28;20254;-80
2021/05/19 08:31:05;;;;;;;7.67;6.97;;;17.20;99.90;;;;;;5029732;28;20232;-80
2021/05/19 08:33:32;;;;;;;7.07;6.57;;;17.10;99.90;;;;;;5027696;28;20673;-80
2021/05/19 08:35:58;;;;;;;7.80;7.20;;;17.10;99.90;;;;;;5023388;28;20207;-80
2021/05/19 08:38:24;;;;;;;7.87;7.43;;;17.80;99.90;;;;;;5025175;28;20205;-80
2021/05/19 08:40:52;;;;;;;7.20;6.73;;;18.20;99.90;;;;;;5023182;28;20212;-80
2021/05/19 08:43:18;;;;;;;7.40;6.90;;;17.60;99.90;;;;;;5016805;28;20214;-80
2021/05/19 08:45:45;;;;;;;7.77;7.10;;;17.00;99.90;;;;;;5033334;28;20213;-80
2021/05/19 08:48:11;;;;;;;7.57;7.07;;;16.60;99.90;;;;;;5022836;28;20196;-80
2021/05/19 08:50:38;;;;;;;7.20;6.70;;;16.20;99.90;;;;;;5038016;28;20294;-79
2021/05/19 08:53:07;;;;;;;7.27;6.77;;;15.90;99.90;;;;;;5027126;28;20234;-80
2021/05/19 08:55:36;;;;;;;7.37;6.77;;;15.80;99.90;;;;;;5043658;28;20209;-80
2021/05/19 08:58:03;;;;;;;7.20;6.70;;;15.70;99.90;;;;;;5025456;28;20235;-80
2021/05/19 09:00:33;;;;;;;6.73;6.23;;;15.60;99.90;;;;;;5030802;28;20659;-79
2021/05/19 09:03:08;;;;;;;6.23;5.83;;;15.60;99.90;;;;;;5017336;28;20206;-80
2021/05/19 09:05:35;;;;;;;5.70;5.20;;;15.70;99.90;;;;;;5030078;28;20208;-80
2021/05/19 09:08:06;;;;;;;6.07;5.77;;;16.10;99.90;;;;;;5023250;28;20651;-79
2021/05/19 09:10:33;;;;;;;6.40;6.10;;;16.50;99.90;;;;;;5040735;28;20238;-79
2021/05/19 09:13:00;;;;;;;6.33;2.70;;;16.70;99.90;;;;;;5023021;28;20251;-80
2021/05/19 09:15:45;;;;;;;2.13;2.03;;;16.90;99.90;;;;;;5019675;28;20206;-80
2021/05/19 09:18:12;;;;;;;3.17;2.27;;;17.10;99.90;;;;;;5036764;28;20270;-80
2021/05/19 09:20:43;;;;;;;3.23;2.50;;;17.20;99.90;;;;;;5035518;28;20223;-80
2021/05/19 09:23:16;;;;;;;2.50;2.30;;;17.20;99.90;;;;;;5037907;28;20591;-80
2021/05/19 09:25:42;;;;;;;2.50;2.30;;;17.10;99.90;;;;;;5018741;28;20199;-80
2021/05/19 09:28:09;;;;;;;3.13;2.23;;;16.90;99.90;;;;;;5041724;28;20196;-80
2021/05/19 09:30:39;;;;;;;2.50;2.27;;;16.80;99.90;;;;;;5017866;28;20230;-80
2021/05/19 09:33:16;;;;;;;2.37;2.27;;;16.80;99.90;;;;;;5019286;28;20202;-80
2021/05/19 09:35:42;;;;;;;2.70;2.60;;;16.70;99.90;;;;;;5019180;28;20208;-80
2021/05/19 09:38:27;;;;;;;1.80;1.70;;;16.90;99.90;;;;;;5017893;28;20220;-80
2021/05/19 09:41:17;;;;;;;2.53;2.40;;;17.60;99.90;;;;;;5018559;28;20231;-80
2021/05/19 09:43:44;;;;;;;3.07;2.90;;;18.50;99.90;;;;;;5019048;28;20192;-80
2021/05/19 09:46:21;;;;;;;6.73;6.33;;;19.00;99.90;;;;;;5017173;28;20218;-80
2021/05/19 09:48:48;;;;;;;7.70;6.90;;;19.60;99.90;;;;;;5019043;28;20192;-80
2021/05/19 09:51:28;;;;;;;6.50;6.10;;;19.50;99.90;;;;;;5028234;28;20213;-80
2021/05/19 09:53:54;;;;;;;6.80;6.40;;;19.50;99.90;;;;;;5028080;28;20198;-80
2021/05/19 09:56:21;;;;;;;6.63;6.20;;;20.10;99.90;;;;;;5034586;28;20216;-80
2021/05/19 09:58:48;;;;;;;6.87;6.47;;;20.40;99.90;;;;;;5025834;28;20587;-79
2021/05/19 10:01:15;;;;;;;6.13;5.70;;;20.80;99.90;;;;;;5024961;28;20223;-80
2021/05/19 10:03:42;;;;;;;6.60;6.20;;;21.10;99.90;;;;;;5023563;28;20206;-81
2021/05/19 10:06:16;;;;;;;5.97;5.60;;;21.50;99.90;;;;;;5027251;28;20266;-79
2021/05/19 10:08:42;;;;;;;6.10;5.80;;;21.20;99.90;;;;;;5040031;28;20203;-80
2021/05/19 10:11:09;;;;;;;6.50;6.00;;;21.10;99.90;;;;;;5035812;28;20219;-80
2021/05/19 10:13:36;;;;;;;6.80;6.33;;;21.10;99.90;;;;;;5020343;28;20461;-80
2021/05/19 10:16:05;;;;;;;6.47;6.07;;;20.80;99.30;;;;;;5009280;28;20744;-76
2021/05/19 10:18:37;;;;;;;6.33;5.93;;;20.20;99.00;;;;;;5022917;28;20213;-77
2021/05/19 10:21:06;;;;;;;6.70;6.20;;;19.60;99.90;;;;;;5033568;28;20695;-80
2021/05/19 10:23:37;;;;;;;8.37;6.43;;;19.20;99.90;;;;;;5027624;28;20214;-78
2021/05/19 10:26:08;;;;;;;8.90;6.50;;;18.70;99.90;;;;;;5017999;28;20745;-80
2021/05/19 10:28:40;;;;;;;7.30;6.17;;;17.90;99.90;;;;;;5032951;28;20565;-80
2021/05/19 10:31:24;;;;;;;7.20;5.80;;;17.30;99.90;;;;;;5040283;28;20221;-80
2021/05/19 10:33:51;;;;;;;6.33;5.97;;;16.80;99.90;;;;;;5037341;28;20280;-80
2021/05/19 10:36:38;;;;;;;6.23;5.83;;;16.50;99.90;;;;;;5014512;28;20222;-80
2021/05/19 10:39:27;;;;;;;6.30;5.80;;;16.30;99.90;;;;;;5028768;28;20203;-80
2021/05/19 10:41:55;;;;;;;6.40;5.90;;;16.20;99.90;;;;;;5023376;28;20253;-79
2021/05/19 10:44:28;;;;;;;2.60;2.30;;;16.50;99.90;;;;;;5028679;28;20242;-80
2021/05/19 10:46:58;;;;;;;5.77;5.40;;;16.80;99.90;;;;;;5027735;28;20226;-79
2021/05/19 10:50:08;;;;;;;7.40;6.80;;;17.10;99.90;;;;;;5041360;28;20199;-79
2021/05/19 10:58:40;;;;;;;6.23;5.93;;;17.60;99.90;;;;;;5020980;28;20205;-80
2021/05/19 11:01:09;;;;;;;6.93;6.53;;;17.70;99.90;;;;;;5026433;28;20226;-79
2021/05/19 11:03:36;;;;;;;6.10;5.70;;;17.90;99.90;;;;;;5044166;28;20202;-80
2021/05/19 11:06:14;;;;;;;5.80;5.50;;;18.10;99.90;;;;;;5026146;28;20206;-80
2021/05/19 11:08:41;;;;;;;6.43;6.03;;;18.20;99.90;;;;;;5029723;28;20297;-80
2021/05/19 11:11:29;;;;;;;5.87;5.53;;;18.40;99.90;;;;;;5047953;28;21182;-80
2021/05/19 11:14:11;;;;;;;5.70;5.40;;;18.30;99.90;;;;;;5026043;28;20229;-80
2021/05/19 11:16:47;;;;;;;5.57;5.27;;;18.50;99.90;;;;;;5022275;28;20218;-81
2021/05/19 11:19:26;;;;;;;6.13;5.70;;;18.70;99.90;;;;;;5042702;28;20201;-80
2021/05/19 11:21:58;;;;;;;5.60;5.30;;;18.90;99.90;;;;;;5029981;28;20782;-80
2021/05/19 11:24:27;;;;;;;5.70;5.40;;;19.20;99.90;;;;;;5023174;28;20605;-80
2021/05/19 11:26:53;;;;;;;5.60;5.30;;;19.20;99.90;;;;;;5032107;28;20200;-80
2021/05/19 11:29:20;;;;;;;5.50;5.20;;;19.00;99.90;;;;;;5040534;28;20211;-81
2021/05/19 11:31:55;;;;;;;5.67;5.37;;;18.90;99.10;;;;;;5023242;28;20590;-80
2021/05/19 11:34:25;;;;;;;5.90;5.60;;;18.60;99.90;;;;;;5033404;28;20283;-81
2021/05/19 11:36:54;;;;;;;6.40;5.80;;;18.40;99.90;;;;;;5036758;28;20211;-80
2021/05/19 11:39:28;;;;;;;5.93;5.63;;;18.20;98.80;;;;;;5042852;28;20200;-80
2021/05/19 11:42:09;;;;;;;6.13;5.83;;;17.90;97.20;;;;;;5023347;28;20226;-80
2021/05/19 11:44:37;;;;;;;6.07;5.63;;;18.20;99.90;;;;;;5027490;28;20199;-81
2021/05/19 11:47:04;;;;;;;6.70;6.10;;;18.60;98.20;;;;;;5028746;28;20610;-80
2021/05/19 11:49:31;;;;;;;6.40;6.10;;;18.50;97.40;;;;;;5024451;28;20687;-80
2021/05/19 11:51:57;;;;;;;6.40;5.90;;;18.60;98.20;;;;;;5027287;28;20220;-80
2021/05/19 11:54:25;;;;;;;6.10;5.77;;;18.50;99.10;;;;;;5018164;28;20276;-81
2021/05/19 11:56:53;;;;;;;6.40;5.90;;;18.50;99.90;;;;;;5023909;28;20611;-79
2021/05/19 11:59:24;;;;;;;6.57;6.10;;;18.60;99.90;;;;;;5027978;28;20201;-80
2021/05/19 12:01:59;;;;;;;6.00;5.60;;;19.00;99.60;;;;;;5027644;28;20236;-79
2021/05/19 12:04:27;;;;;;;6.43;5.90;;;19.20;97.10;;;;;;5004494;28;20188;-80
2021/05/19 12:06:53;;;;;;;6.30;5.90;;;19.30;95.60;;;;;;5036172;28;20262;-79
2021/05/19 12:09:22;;;;;;;6.30;5.80;;;19.20;95.80;;;;;;5026685;28;20601;-81
2021/05/19 12:11:50;;;;;;;6.30;5.90;;;19.10;96.70;;;;;;5019632;28;20228;-79
2021/05/19 12:14:18;;;;;;;6.73;6.33;;;19.20;98.80;;;;;;5031819;28;20688;-81
2021/05/19 12:16:46;;;;;;;6.60;6.20;;;19.40;96.60;;;;;;5026865;28;20216;-81
2021/05/19 12:19:13;;;;;;;6.97;6.57;;;19.50;94.70;;;;;;5020337;28;20219;-81
2021/05/19 12:21:42;;;;;;;6.60;6.20;;;19.40;94.00;;;;;;5027203;28;20224;-81
2021/05/19 12:24:09;;;;;;;6.53;6.13;;;19.00;93.00;;;;;;5036062;28;20196;-80
2021/05/19 12:26:37;;;;;;;6.40;5.97;;;18.60;93.50;;;;;;5019909;28;20197;-81
2021/05/19 12:29:05;;;;;;;6.07;5.77;;;18.30;92.50;;;;;;5035993;28;20207;-79
2021/05/19 12:31:34;;;;;;;6.33;5.93;;;18.10;93.60;;;;;;5020235;28;20234;-80
2021/05/19 12:34:00;;;;;;;6.33;5.83;;;18.20;93.70;;;;;;5022900;28;20219;-80
2021/05/19 12:36:30;;;;;;;5.93;5.63;;;18.30;93.40;;;;;;5035108;28;20565;-80
2021/05/19 12:38:59;;;;;;;6.63;6.23;;;18.50;93.90;;;;;;5035793;28;20195;-80
2021/05/19 12:41:42;;;;;;;6.00;5.60;;;18.40;93.60;;;;;;5039088;28;20224;-81
2021/05/19 12:44:10;;;;;;;5.50;5.20;;;18.50;94.30;;;;;;5045822;28;20229;-82
2021/05/19 12:46:36;;;;;;;5.70;5.40;;;18.40;94.40;;;;;;5030682;28;20673;-82
2021/05/19 12:49:09;;;;;;;6.20;5.80;;;18.30;94.00;;;;;;5028309;28;20201;-81
2021/05/19 12:51:49;;;;;;;5.83;5.43;;;18.20;95.10;;;;;;5050597;28;20226;-82
2021/05/19 12:54:28;;;;;;;5.97;5.57;;;18.10;96.50;;;;;;5037118;28;20199;-82
2021/05/19 12:56:59;;;;;;;6.00;5.60;;;17.90;95.10;;;;;;5030675;28;20646;-79
2021/05/19 12:59:27;;;;;;;5.80;5.40;;;17.80;95.90;;;;;;5025828;28;20204;-83
2021/05/19 13:01:55;;;;;;;5.57;5.27;;;17.50;94.40;;;;;;5034279;28;20249;-81
2021/05/19 13:04:24;;;;;;;5.50;5.20;;;17.60;96.70;;;;;;5015396;28;20205;-80
2021/05/19 13:06:53;;;;;;;5.67;5.37;;;17.60;94.10;;;;;;5034795;28;20198;-81